Phoenix, Arizona
Traffic Map
Current Weather Conditions
Phoenix, Arizona
Broken Clouds
Broken Clouds
14°
Feels Like: 14°
Wind Chill: 14° Ceiling: 25000
Heat Index: 14° Visibility: 10mi
Dew Point: Wind: 0mph
Humidity: 42% Direction: ° ()
Pressure: 30.05in Gusts: 0mph
Raw Report DataKPHX 190551Z 00000KT 10SM BKN250 14/01 A3005 RMK AO2 SLP169 T01390011 10228 20139 53005
Traffic Incident Summary
Active as of:
Severity:
Category:
InformationThere was an issue retrieving the traffic information for this location. Please try a different location or try again shortly.
Advertisements